Time;durP1;ratioP1;P1;durP2;ratioP2;P2;SDS_P1;SDS_P2;PMS_P1;PMS_P2;Temp;Humidity;BMP_temperature;BMP_pressure;BME280_temperature;BME280_humidity;BME280_pressure;Samples;Min_cycle;Max_cycle;Signal;HPM_P1;HPM_P2
2020/12/13 00:00:14;;;;;;;7.12;4.57;;;;;;;7.56;66.83;99019.84;4333819;33;34971;-85
2020/12/13 00:02:42;;;;;;;4.35;3.95;;;;;;;7.36;67.15;99020.88;4321585;33;33693;-85
2020/12/13 00:05:09;;;;;;;5.87;4.40;;;;;;;7.27;67.47;99019.91;4333541;33;33517;-85
2020/12/13 00:07:37;;;;;;;4.50;2.58;;;;;;;7.08;68.46;99024.41;4320874;33;33962;-85
2020/12/13 00:10:06;;;;;;;5.50;2.92;;;;;;;6.71;69.53;99028.72;4321646;33;34302;-85
2020/12/13 00:12:36;;;;;;;6.28;3.50;;;;;;;6.09;72.08;99031.69;4321698;33;32585;-85
2020/12/13 00:15:04;;;;;;;3.65;2.58;;;;;;;6.56;70.45;99020.38;4320957;33;33898;-85
2020/12/13 00:17:33;;;;;;;5.85;3.67;;;;;;;6.65;70.15;99026.63;4333825;33;34838;-85
2020/12/13 00:20:00;;;;;;;4.18;3.55;;;;;;;6.49;70.61;99028.97;4321586;33;33070;-84
2020/12/13 00:22:27;;;;;;;4.15;2.87;;;;;;;6.66;70.07;99029.16;4321353;33;33460;-85
2020/12/13 00:24:55;;;;;;;5.97;2.40;;;;;;;6.60;70.43;99034.97;4332692;33;33252;-84
2020/12/13 00:27:22;;;;;;;2.95;2.72;;;;;;;6.61;70.17;99028.72;4333571;33;34820;-85
2020/12/13 00:29:50;;;;;;;5.18;4.72;;;;;;;6.60;70.40;99034.16;4345723;33;34170;-85
2020/12/13 00:32:18;;;;;;;4.15;3.00;;;;;;;7.00;68.93;99026.91;4333188;33;31999;-85
2020/12/13 00:34:46;;;;;;;5.53;4.72;;;;;;;6.78;69.54;99029.81;4308793;33;32711;-85
2020/12/13 00:37:13;;;;;;;8.60;5.33;;;;;;;6.79;69.56;99031.53;4309065;33;33224;-85
2020/12/13 00:39:41;;;;;;;6.62;3.35;;;;;;;6.60;70.13;99032.34;4321532;33;35014;-84
2020/12/13 00:42:08;;;;;;;6.75;3.80;;;;;;;6.80;69.22;99027.91;4321306;33;34285;-85
2020/12/13 00:44:36;;;;;;;12.15;3.20;;;;;;;6.98;68.70;99026.22;4320499;33;32710;-85
2020/12/13 00:47:03;;;;;;;12.55;4.15;;;;;;;7.02;68.38;99038.19;4321571;33;34063;-85
2020/12/13 00:49:31;;;;;;;4.22;3.60;;;;;;;6.85;68.73;99034.44;4333615;33;34196;-85
2020/12/13 00:52:03;;;;;;;12.80;3.25;;;;;;;6.77;69.07;99039.56;4333496;33;33580;-85
2020/12/13 00:54:32;;;;;;;4.87;3.25;;;;;;;6.64;69.46;99043.47;4332372;33;33027;-85
2020/12/13 00:56:59;;;;;;;;;;;;;;;6.52;69.82;99045.41;4320994;33;35634;-85
2020/12/13 00:59:28;;;;;;;5.25;2.97;;;;;;;6.59;69.61;99038.59;4333198;33;34383;-84
2020/12/13 01:01:55;;;;;;;5.65;4.75;;;;;;;6.27;70.72;99039.78;4321132;33;31725;-84
2020/12/13 01:04:23;;;;;;;5.43;4.82;;;;;;;6.29;70.85;99036.06;4333964;33;34195;-85
2020/12/13 01:06:51;;;;;;;;;;;;;;;6.23;70.90;99036.59;4321253;33;33223;-85
2020/12/13 01:09:18;;;;;;;9.02;3.55;;;;;;;6.06;71.24;99039.03;4334578;33;33971;-85
2020/12/13 01:11:47;;;;;;;3.65;2.58;;;;;;;6.21;70.98;99042.97;4332989;33;31982;-85
2020/12/13 01:14:14;;;;;;;8.07;4.43;;;;;;;6.26;70.64;99030.19;4332768;33;33421;-85
2020/12/13 01:16:42;;;;;;;10.85;6.68;;;;;;;5.89;71.73;99037.84;4321065;33;34730;-85
2020/12/13 01:19:09;;;;;;;5.40;3.55;;;;;;;5.95;71.82;99045.25;4320925;33;32744;-85
2020/12/13 01:21:38;;;;;;;7.28;4.43;;;;;;;5.99;71.32;99041.41;4333183;33;31622;-85
2020/12/13 01:24:06;;;;;;;5.80;2.78;;;;;;;6.03;71.12;99041.94;4308546;33;32737;-85
2020/12/13 01:26:33;;;;;;;7.40;3.75;;;;;;;5.98;71.27;99046.81;4321173;33;34938;-85
2020/12/13 01:29:01;;;;;;;5.47;4.47;;;;;;;5.76;72.43;99046.94;4334366;33;35093;-85
2020/12/13 01:31:29;;;;;;;7.32;4.55;;;;;;;5.98;71.56;99049.44;4321487;33;34033;-84
2020/12/13 01:33:56;;;;;;;16.37;5.95;;;;;;;5.93;71.83;99052.47;4332172;33;33330;-84
2020/12/13 01:36:25;;;;;;;5.93;2.47;;;;;;;6.09;71.20;99058.09;4320997;33;34748;-85
2020/12/13 01:38:53;;;;;;;4.45;2.83;;;;;;;6.11;70.98;99053.50;4308889;33;32694;-85
2020/12/13 01:41:21;;;;;;;7.43;4.05;;;;;;;6.27;70.35;99058.28;4320481;33;32145;-85
2020/12/13 01:43:58;;;;;;;8.75;5.07;;;;;;;6.42;69.84;99059.56;4319978;33;32199;-85
2020/12/13 01:46:27;;;;;;;6.27;5.80;;;;;;;6.17;70.90;99062.69;4320717;33;34227;-84
2020/12/13 01:49:06;;;;;;;4.97;3.60;;;;;;;6.35;69.79;99061.91;4321444;33;34422;-85
2020/12/13 01:54:18;;;;;;;5.05;3.83;;;;;;;6.00;71.36;99072.09;4332898;33;34503;-85
2020/12/13 01:56:48;;;;;;;4.53;3.47;;;;;;;5.88;71.63;99067.88;4321178;33;35640;-85
2020/12/13 01:59:17;;;;;;;4.45;4.03;;;;;;;5.67;72.06;99074.16;4320770;33;34928;-85
2020/12/13 02:01:56;;;;;;;5.80;3.58;;;;;;;6.00;71.28;99076.53;4320628;33;31692;-85
2020/12/13 02:04:28;;;;;;;7.12;4.47;;;;;;;6.00;71.21;99084.44;4319736;33;33842;-84
2020/12/13 02:06:56;;;;;;;5.20;4.00;;;;;;;5.92;71.37;99081.63;4320004;33;34662;-84
2020/12/13 02:09:25;;;;;;;4.03;2.50;;;;;;;5.97;71.37;99079.44;4320326;33;35780;-85
2020/12/13 02:11:53;;;;;;;6.68;4.72;;;;;;;5.60;72.44;99079.09;4320721;33;32143;-84
2020/12/13 02:14:21;;;;;;;5.22;3.85;;;;;;;5.98;71.17;99081.13;4332525;33;34348;-85
2020/12/13 02:16:48;;;;;;;;;;;;;;;5.99;71.25;99082.78;4332517;33;35945;-84
2020/12/13 02:19:16;;;;;;;4.68;2.40;;;;;;;5.79;71.91;99079.22;4320818;33;34265;-85
2020/12/13 02:21:45;;;;;;;8.50;3.97;;;;;;;5.94;71.07;99083.19;4320980;33;32536;-85
2020/12/13 02:24:13;;;;;;;3.22;2.95;;;;;;;5.65;71.69;99083.97;4332267;33;32632;-84
2020/12/13 02:26:43;;;;;;;4.32;3.12;;;;;;;5.93;70.58;99083.31;4332896;33;35882;-85
2020/12/13 02:29:12;;;;;;;5.03;3.87;;;;;;;5.51;72.10;99079.88;4332570;33;34313;-84
2020/12/13 02:31:40;;;;;;;2.67;2.47;;;;;;;5.04;72.91;99082.19;4332704;33;34318;-85
2020/12/13 02:34:08;;;;;;;3.33;2.95;;;;;;;5.30;72.40;99078.22;4332621;33;33836;-85
2020/12/13 02:36:37;;;;;;;7.07;3.45;;;;;;;5.50;71.89;99085.28;4321019;33;34463;-85
2020/12/13 02:39:07;;;;;;;5.50;3.33;;;;;;;5.19;72.86;99080.91;4321047;33;34358;-85
2020/12/13 02:41:34;;;;;;;6.32;3.62;;;;;;;5.39;72.57;99077.47;4332647;33;33245;-85
2020/12/13 02:44:02;;;;;;;10.35;4.10;;;;;;;5.08;73.15;99074.88;4320556;33;32899;-85
2020/12/13 02:46:30;;;;;;;2.40;2.22;;;;;;;5.01;73.49;99078.97;4307847;33;35552;-85
2020/12/13 02:48:58;;;;;;;5.18;2.90;;;;;;;5.55;71.58;99078.66;4332518;33;33151;-84
2020/12/13 02:51:27;;;;;;;5.35;3.50;;;;;;;4.94;73.62;99069.88;4332364;33;32180;-85
2020/12/13 02:53:54;;;;;;;6.05;2.83;;;;;;;4.95;74.24;99076.84;4320180;33;32897;-85
2020/12/13 02:56:22;;;;;;;3.75;3.47;;;;;;;5.29;72.58;99073.88;4332184;33;34661;-84
2020/12/13 02:58:50;;;;;;;4.28;3.35;;;;;;;5.45;72.21;99076.09;4332586;33;35211;-85
2020/12/13 03:01:17;;;;;;;5.40;3.42;;;;;;;5.17;73.05;99072.28;4308185;33;33082;-84
2020/12/13 03:03:46;;;;;;;5.75;3.95;;;;;;;4.94;73.75;99081.28;4320458;33;34401;-85
2020/12/13 03:06:15;;;;;;;8.73;3.35;;;;;;;5.05;73.22;99081.22;4332396;33;34948;-84
2020/12/13 03:08:43;;;;;;;2.87;2.15;;;;;;;5.17;72.60;99071.47;4308277;33;33163;-85
2020/12/13 03:11:10;;;;;;;1.95;1.83;;;;;;;5.08;73.14;99067.78;4307798;33;33390;-84
2020/12/13 03:13:38;;;;;;;4.35;3.78;;;;;;;4.98;73.60;99079.25;4332129;33;33875;-85
2020/12/13 03:16:06;;;;;;;3.15;2.90;;;;;;;4.93;73.62;99071.72;4332256;33;34815;-85
2020/12/13 03:18:33;;;;;;;2.65;2.17;;;;;;;4.95;73.60;99079.47;4319941;33;32893;-85
2020/12/13 03:21:01;;;;;;;5.85;3.03;;;;;;;5.24;72.33;99088.44;4332080;33;33456;-84
2020/12/13 03:23:28;;;;;;;6.93;5.00;;;;;;;5.08;72.76;99090.69;4306001;33;34336;-85
2020/12/13 03:25:57;;;;;;;3.80;3.28;;;;;;;4.99;73.41;99089.62;4329423;33;33898;-85
2020/12/13 03:28:25;;;;;;;6.37;3.30;;;;;;;5.10;73.47;99092.22;4322953;33;33077;-85
2020/12/13 03:30:53;;;;;;;4.43;4.03;;;;;;;5.02;73.40;99094.66;4331302;33;32981;-85
2020/12/13 03:33:21;;;;;;;1.77;1.67;;;;;;;5.23;72.45;99097.31;4332017;33;34322;-85
2020/12/13 03:35:49;;;;;;;10.30;6.10;;;;;;;5.39;72.17;99102.97;4332096;33;33638;-85
2020/12/13 03:38:16;;;;;;;2.95;1.75;;;;;;;5.08;73.17;99096.78;4307041;33;33569;-85
2020/12/13 03:40:44;;;;;;;2.58;1.90;;;;;;;5.28;72.22;99103.88;4319724;33;32327;-85
2020/12/13 03:43:12;;;;;;;3.85;3.50;;;;;;;4.83;73.35;99106.84;4331754;33;34491;-84
2020/12/13 03:45:39;;;;;;;9.70;3.53;;;;;;;4.60;74.15;99108.69;4319961;33;34582;-85
2020/12/13 03:48:07;;;;;;;4.55;4.22;;;;;;;4.75;73.90;99118.00;4343989;33;33013;-85
2020/12/13 03:50:41;;;;;;;9.25;5.50;;;;;;;4.72;73.72;99112.97;4305348;33;33944;-85
2020/12/13 03:53:10;;;;;;;7.07;2.70;;;;;;;4.28;75.77;99123.63;4329125;33;33379;-84
2020/12/13 03:55:38;;;;;;;2.17;2.08;;;;;;;4.99;72.84;99120.44;4319936;33;33010;-85
2020/12/13 03:58:13;;;;;;;5.62;4.10;;;;;;;5.03;72.56;99117.44;4331271;33;33404;-85
2020/12/13 04:00:40;;;;;;;;;;;;;;;4.73;73.65;99125.19;4308026;33;32124;-85
2020/12/13 04:03:08;;;;;;;2.72;2.58;;;;;;;4.77;73.33;99123.13;4319926;33;34386;-85
2020/12/13 04:05:55;;;;;;;3.30;2.40;;;;;;;4.68;73.82;99129.16;4343990;33;34286;-84
2020/12/13 04:08:23;;;;;;;1.98;1.80;;;;;;;4.59;73.69;99130.75;4342291;33;33090;-85
2020/12/13 04:10:52;;;;;;;3.67;2.55;;;;;;;4.73;73.57;99129.63;4317622;33;34362;-83
2020/12/13 04:13:19;;;;;;;3.10;2.83;;;;;;;4.64;73.66;99128.56;4328543;33;33599;-83
2020/12/13 04:15:49;;;;;;;3.33;2.80;;;;;;;4.53;74.03;99136.47;4316499;33;34504;-84
2020/12/13 04:18:17;;;;;;;8.13;4.80;;;;;;;4.72;73.56;99133.22;4329034;33;32529;-85
2020/12/13 04:20:46;;;;;;;2.58;2.37;;;;;;;4.53;73.82;99136.47;4319171;33;32854;-84
2020/12/13 04:23:13;;;;;;;4.55;2.22;;;;;;;4.65;73.67;99127.62;4331121;33;33877;-85
2020/12/13 04:25:42;;;;;;;2.87;2.62;;;;;;;4.98;72.88;99134.59;4343575;33;34887;-85
2020/12/13 04:28:09;;;;;;;2.50;2.20;;;;;;;5.05;72.07;99143.62;4318845;33;32617;-84
2020/12/13 04:30:37;;;;;;;2.65;2.05;;;;;;;4.56;73.14;99132.78;4306732;33;32344;-85
2020/12/13 04:33:06;;;;;;;4.25;3.62;;;;;;;4.86;72.40;99130.28;4306934;33;33648;-84
2020/12/13 04:35:33;;;;;;;8.23;5.97;;;;;;;4.70;73.13;99133.34;4331021;33;35790;-85
2020/12/13 04:38:01;;;;;;;;;;;;;;;4.49;73.99;99140.34;4319404;33;34284;-85
2020/12/13 04:40:28;;;;;;;3.23;2.93;;;;;;;4.55;73.56;99142.47;4307760;33;33778;-84
2020/12/13 04:42:56;;;;;;;2.40;2.20;;;;;;;4.89;72.65;99146.69;4333228;33;34531;-84
2020/12/13 04:45:23;;;;;;;;;;;;;;;5.00;71.76;99138.75;4309231;33;32692;-85
2020/12/13 04:48:12;;;;;;;4.28;1.92;;;;;;;4.82;72.54;99142.06;4345433;33;33024;-85
2020/12/13 04:50:40;;;;;;;2.37;2.17;;;;;;;4.79;72.80;99142.31;4320576;33;34275;-85
2020/12/13 04:53:08;;;;;;;4.57;2.70;;;;;;;4.58;73.03;99147.50;4332998;33;32061;-84
2020/12/13 04:55:50;;;;;;;2.33;2.12;;;;;;;4.83;72.88;99149.81;4321031;33;33688;-85
2020/12/13 04:58:20;;;;;;;2.37;2.12;;;;;;;4.98;72.20;99137.22;4332872;33;34918;-85
2020/12/13 05:00:56;;;;;;;6.97;2.95;;;;;;;4.87;72.58;99147.78;4321203;33;33434;-85
2020/12/13 05:03:26;;;;;;;3.55;1.95;;;;;;;5.04;72.07;99149.88;4320705;33;32352;-85
2020/12/13 05:05:58;;;;;;;4.00;1.50;;;;;;;4.78;72.59;99145.88;4320652;33;34257;-84
2020/12/13 05:08:28;;;;;;;0.82;0.82;;;;;;;5.09;71.39;99153.00;4320973;33;34355;-85
2020/12/13 05:10:56;;;;;;;1.77;1.27;;;;;;;4.95;72.00;99154.13;4333369;33;33122;-85
2020/12/13 05:13:25;;;;;;;2.42;2.22;;;;;;;4.57;73.38;99148.47;4299546;33;34346;-85
2020/12/13 05:15:54;;;;;;;6.30;2.28;;;;;;;4.69;72.64;99144.84;4306610;33;33806;-85
2020/12/13 05:18:23;;;;;;;4.75;2.70;;;;;;;5.04;71.76;99147.25;4307434;33;34166;-85
2020/12/13 05:20:50;;;;;;;2.90;2.60;;;;;;;5.16;71.04;99146.22;4321957;33;33377;-85
2020/12/13 05:23:18;;;;;;;1.40;1.10;;;;;;;4.98;72.02;99145.94;4332409;33;33776;-85
2020/12/13 05:25:48;;;;;;;4.35;3.55;;;;;;;4.84;72.16;99155.94;4320703;33;35673;-85
2020/12/13 05:28:17;;;;;;;2.58;1.73;;;;;;;4.87;71.92;99155.69;4334092;33;34045;-85
2020/12/13 05:30:47;;;;;;;2.78;2.58;;;;;;;5.13;71.08;99160.53;4296839;33;32042;-84
2020/12/13 05:33:33;;;;;;;1.85;1.52;;;;;;;5.25;70.82;99162.16;4324054;33;32523;-84
2020/12/13 05:36:06;;;;;;;3.92;2.47;;;;;;;4.88;72.10;99155.56;4320941;33;35820;-85
2020/12/13 05:38:36;;;;;;;1.87;1.58;;;;;;;5.03;71.83;99156.97;4332770;33;35096;-84
2020/12/13 05:41:10;;;;;;;1.70;1.55;;;;;;;4.98;71.89;99166.22;4321037;33;33512;-85
2020/12/13 05:51:38;;;;;;;2.90;1.98;;;;;;;4.72;72.66;99160.38;4332908;33;33514;-84
2020/12/13 05:54:26;;;;;;;1.67;1.58;;;;;;;4.67;72.49;99159.94;4305527;33;33832;-86
2020/12/13 05:56:59;;;;;;;3.20;2.28;;;;;;;4.70;72.58;99162.31;4333724;33;34864;-85
2020/12/13 05:59:29;;;;;;;2.47;1.12;;;;;;;4.52;73.49;99173.50;4344805;33;34418;-84
2020/12/13 06:01:59;;;;;;;3.15;2.83;;;;;;;3.97;74.71;99170.87;4332691;33;34112;-85
2020/12/13 06:04:29;;;;;;;2.37;2.17;;;;;;;4.48;73.40;99175.53;4320395;33;31999;-85
2020/12/13 06:07:05;;;;;;;4.50;4.07;;;;;;;4.65;72.55;99180.31;4332394;33;33669;-85
2020/12/13 06:09:37;;;;;;;3.62;3.33;;;;;;;4.85;72.34;99169.00;4332863;33;35178;-85
2020/12/13 06:12:07;;;;;;;5.30;4.65;;;;;;;4.92;72.00;99167.53;4320548;33;34521;-85
2020/12/13 06:14:39;;;;;;;3.15;2.85;;;;;;;4.43;74.15;99172.41;4332789;33;32466;-85
2020/12/13 06:17:08;;;;;;;8.02;2.15;;;;;;;4.69;73.15;99172.97;4332605;33;33548;-85
2020/12/13 06:19:38;;;;;;;3.72;3.53;;;;;;;4.29;74.82;99171.81;4320742;33;34329;-85
2020/12/13 06:22:13;;;;;;;3.65;2.90;;;;;;;4.72;73.05;99170.94;4332574;33;32797;-85
2020/12/13 06:24:45;;;;;;;3.25;2.90;;;;;;;4.47;73.70;99173.88;4332683;33;33046;-85
2020/12/13 06:27:13;;;;;;;2.67;2.03;;;;;;;4.61;73.01;99178.84;4332745;33;34526;-85
2020/12/13 06:29:44;;;;;;;3.70;3.37;;;;;;;4.73;73.07;99177.06;4332273;33;34583;-85
2020/12/13 06:32:11;;;;;;;4.47;2.90;;;;;;;4.57;73.48;99181.84;4332472;33;33858;-85
2020/12/13 06:34:44;;;;;;;4.90;4.00;;;;;;;4.65;73.23;99188.22;4317556;33;32440;-85
2020/12/13 06:37:12;;;;;;;4.97;3.35;;;;;;;4.61;73.21;99181.50;4332260;33;35199;-85
2020/12/13 06:39:42;;;;;;;9.70;3.22;;;;;;;4.95;72.37;99180.47;4331989;33;33716;-85
2020/12/13 06:42:16;;;;;;;2.87;0.52;;;;;;;4.90;72.48;99187.06;4332599;33;33578;-85
2020/12/13 06:45:05;;;;;;;8.13;3.45;;;;;;;4.29;73.75;99190.25;4332778;33;34561;-85
2020/12/13 06:47:40;;;;;;;1.77;1.15;;;;;;;4.57;73.39;99200.28;4331285;33;34502;-85
2020/12/13 06:50:09;;;;;;;2.50;2.17;;;;;;;4.69;72.92;99202.81;4320520;33;34404;-85
2020/12/13 06:52:40;;;;;;;1.65;1.05;;;;;;;4.67;73.71;99202.09;4332364;33;33510;-85
2020/12/13 06:55:07;;;;;;;3.45;2.92;;;;;;;4.91;72.00;99202.75;4332579;33;34923;-85
2020/12/13 06:57:35;;;;;;;9.80;3.35;;;;;;;4.70;72.50;99212.38;4333502;33;35080;-85
2020/12/13 07:00:05;;;;;;;2.33;2.15;;;;;;;4.84;72.51;99216.56;4308213;33;33050;-85
2020/12/13 07:03:03;;;;;;;2.65;0.77;;;;;;;4.83;72.65;99209.59;4326678;33;33469;-85
2020/12/13 07:05:44;;;;;;;6.60;3.50;;;;;;;4.96;72.24;99211.13;4316566;33;35238;-85
2020/12/13 07:08:19;;;;;;;5.60;3.30;;;;;;;4.89;72.43;99214.41;4319484;33;33649;-85
2020/12/13 07:10:51;;;;;;;3.00;2.80;;;;;;;4.88;71.91;99223.22;4332548;33;34198;-86
2020/12/13 07:13:22;;;;;;;4.87;1.87;;;;;;;5.22;71.00;99227.47;4307795;33;31627;-85
2020/12/13 07:15:56;;;;;;;1.85;1.73;;;;;;;5.01;72.11;99223.94;4319889;33;32241;-85
2020/12/13 07:18:25;;;;;;;4.65;3.22;;;;;;;5.04;71.85;99221.06;4317060;33;34373;-85
2020/12/13 07:20:55;;;;;;;3.15;2.95;;;;;;;4.83;72.42;99228.88;4317681;33;34132;-85
2020/12/13 07:23:23;;;;;;;2.83;1.62;;;;;;;5.03;71.73;99222.00;4324340;33;32293;-84
2020/12/13 07:25:53;;;;;;;2.28;1.75;;;;;;;4.72;72.46;99226.25;4331296;33;34526;-84
2020/12/13 07:28:22;;;;;;;4.75;2.15;;;;;;;4.67;73.29;99228.44;4319475;33;35594;-85
2020/12/13 07:30:50;;;;;;;2.65;2.45;;;;;;;4.84;72.51;99238.47;4332421;33;34414;-85
2020/12/13 07:33:17;;;;;;;2.37;1.42;;;;;;;4.91;72.45;99247.56;4319194;33;33613;-85
2020/12/13 07:35:45;;;;;;;4.12;3.58;;;;;;;5.38;70.92;99246.37;4333105;33;33973;-85
2020/12/13 07:38:13;;;;;;;1.90;1.80;;;;;;;5.17;70.97;99241.03;4331737;33;35905;-85
2020/12/13 07:40:40;;;;;;;2.20;1.05;;;;;;;5.02;72.16;99251.97;4319765;33;34027;-84
2020/12/13 07:43:09;;;;;;;2.53;2.33;;;;;;;5.05;71.84;99254.34;4332884;33;34078;-85
2020/12/13 07:45:37;;;;;;;4.53;3.20;;;;;;;4.93;72.23;99247.44;4319811;33;34169;-84
2020/12/13 07:48:05;;;;;;;5.30;3.42;;;;;;;5.00;71.93;99252.09;4319241;33;34558;-85
2020/12/13 07:50:59;;;;;;;;;;;;;;;5.43;70.44;99253.75;4319622;33;33487;-85
2020/12/13 07:53:29;;;;;;;2.95;1.50;;;;;;;4.83;72.37;99260.50;4320577;33;32602;-85
2020/12/13 07:55:56;;;;;;;3.22;2.20;;;;;;;5.20;71.57;99258.41;4325157;33;33930;-85
2020/12/13 07:58:24;;;;;;;3.12;2.00;;;;;;;5.37;70.85;99263.97;4329563;33;34146;-85
2020/12/13 08:00:52;;;;;;;5.55;2.80;;;;;;;5.33;71.10;99259.06;4319212;33;34425;-85
2020/12/13 08:03:21;;;;;;;2.25;2.05;;;;;;;5.35;71.10;99255.38;4316280;33;31292;-85
2020/12/13 08:05:48;;;;;;;2.12;1.98;;;;;;;5.46;70.70;99259.78;4315019;33;34658;-85
2020/12/13 08:08:15;;;;;;;7.72;5.12;;;;;;;5.37;70.82;99258.72;4299561;33;33822;-85
2020/12/13 08:10:43;;;;;;;5.65;1.90;;;;;;;4.98;72.06;99267.19;4326704;33;34664;-85
2020/12/13 08:13:11;;;;;;;6.65;4.00;;;;;;;5.32;71.62;99263.53;4304535;33;33542;-85
2020/12/13 08:15:38;;;;;;;6.45;4.62;;;;;;;5.30;71.02;99264.63;4306229;33;33656;-84
2020/12/13 08:18:07;;;;;;;;;;;;;;;5.42;70.68;99261.81;4323960;33;34133;-84
2020/12/13 08:20:38;;;;;;;7.50;3.55;;;;;;;4.73;72.66;99272.72;4301179;33;34196;-85
2020/12/13 08:23:07;;;;;;;4.03;3.47;;;;;;;4.90;72.77;99277.50;4293409;33;31787;-86
2020/12/13 08:25:37;;;;;;;2.95;2.75;;;;;;;5.13;71.65;99276.53;4309566;33;33498;-85
2020/12/13 08:28:04;;;;;;;;;;;;;;;5.25;71.49;99287.88;4319268;33;34901;-85
2020/12/13 08:30:33;;;;;;;3.35;3.08;;;;;;;5.42;70.84;99284.72;4294695;33;34787;-85
2020/12/13 08:33:01;;;;;;;3.25;2.15;;;;;;;4.84;72.21;99296.47;4319324;33;32840;-86
2020/12/13 08:35:29;;;;;;;6.28;4.78;;;;;;;4.74;72.43;99292.87;4309677;33;33588;-85
2020/12/13 08:37:59;;;;;;;4.95;2.37;;;;;;;4.80;72.86;99308.19;4323410;33;34833;-85
2020/12/13 08:40:37;;;;;;;3.28;2.72;;;;;;;4.84;72.92;99304.38;4305732;33;33819;-85
2020/12/13 08:43:06;;;;;;;3.80;3.50;;;;;;;4.87;72.23;99316.44;4306789;33;32131;-85
2020/12/13 08:45:34;;;;;;;3.50;2.12;;;;;;;4.85;72.41;99313.94;4282402;33;32892;-84
2020/12/13 08:48:09;;;;;;;5.03;4.55;;;;;;;4.71;72.74;99322.06;4309361;33;34939;-85
2020/12/13 08:50:40;;;;;;;2.45;2.12;;;;;;;4.76;73.57;99322.56;4343080;33;34265;-85
2020/12/13 08:53:23;;;;;;;2.40;2.30;;;;;;;4.29;74.60;99324.53;4332965;33;32269;-85
2020/12/13 08:56:09;;;;;;;4.85;2.67;;;;;;;5.26;71.59;99329.94;4329657;33;33086;-85
2020/12/13 08:58:47;;;;;;;2.17;1.37;;;;;;;4.70;72.64;99328.31;4336235;33;35323;-84
2020/12/13 09:01:16;;;;;;;4.25;3.80;;;;;;;4.60;73.73;99339.66;4336114;32;33529;-86
2020/12/13 09:03:44;;;;;;;5.95;3.90;;;;;;;4.65;73.00;99342.78;4320690;33;33408;-85
2020/12/13 09:06:12;;;;;;;3.00;2.80;;;;;;;4.80;72.99;99342.44;4320507;33;34726;-85
2020/12/13 09:08:39;;;;;;;6.78;2.70;;;;;;;5.17;72.19;99343.03;4335590;33;34574;-86
2020/12/13 09:11:07;;;;;;;3.78;2.62;;;;;;;4.85;72.42;99342.94;4328572;33;33048;-85
2020/12/13 09:13:36;;;;;;;5.60;2.72;;;;;;;4.98;72.11;99334.91;4321340;33;31846;-85
2020/12/13 09:16:04;;;;;;;6.47;3.97;;;;;;;5.24;71.57;99329.22;4320457;33;32155;-85
2020/12/13 09:18:32;;;;;;;3.87;2.05;;;;;;;5.06;72.76;99338.59;4332967;33;34621;-85
2020/12/13 09:21:00;;;;;;;6.03;3.58;;;;;;;4.92;72.13;99338.00;4332824;33;33119;-85
2020/12/13 09:23:28;;;;;;;6.15;3.87;;;;;;;5.28;71.38;99337.75;4334758;33;33191;-85
2020/12/13 09:25:56;;;;;;;6.00;3.22;;;;;;;5.30;71.05;99333.19;4320874;33;33895;-85
2020/12/13 09:28:24;;;;;;;4.15;2.25;;;;;;;5.29;70.72;99342.88;4309367;33;34183;-85
2020/12/13 09:30:52;;;;;;;;;;;;;;;4.92;72.16;99335.38;4320756;33;33936;-85
2020/12/13 09:33:20;;;;;;;5.35;4.70;;;;;;;5.41;71.05;99341.06;4313891;33;32154;-85
2020/12/13 09:35:47;;;;;;;3.75;3.45;;;;;;;4.62;72.73;99341.22;4320541;33;31900;-85
2020/12/13 09:38:15;;;;;;;4.35;4.05;;;;;;;4.93;72.18;99337.91;4336857;33;35406;-85
2020/12/13 09:40:43;;;;;;;;;;;;;;;4.83;72.28;99342.19;4326298;33;34883;-85
2020/12/13 09:43:10;;;;;;;7.62;3.45;;;;;;;4.78;72.92;99341.72;4329105;33;33215;-84
2020/12/13 09:45:37;;;;;;;4.65;2.50;;;;;;;4.88;72.56;99342.69;4337962;33;33052;-85
2020/12/13 09:48:05;;;;;;;9.02;3.65;;;;;;;4.76;73.04;99348.91;4309885;33;35470;-85
2020/12/13 09:50:32;;;;;;;6.43;3.87;;;;;;;4.62;73.52;99349.12;4328342;33;34210;-84
2020/12/13 09:53:00;;;;;;;3.15;2.67;;;;;;;4.53;74.30;99339.28;4323384;33;32252;-85
2020/12/13 09:55:27;;;;;;;3.72;2.05;;;;;;;5.13;72.22;99342.44;4333860;33;33841;-85
2020/12/13 09:57:56;;;;;;;4.87;3.67;;;;;;;4.90;72.35;99342.56;4335258;33;35870;-84
2020/12/13 10:00:24;;;;;;;2.70;2.47;;;;;;;4.57;73.76;99351.28;4321765;33;33963;-85
2020/12/13 10:02:53;;;;;;;4.37;3.95;;;;;;;4.77;72.59;99350.59;4338525;33;33562;-85
2020/12/13 10:05:26;;;;;;;4.20;3.83;;;;;;;4.77;73.07;99347.09;4335099;33;33741;-85
2020/12/13 10:10:42;;;;;;;7.53;5.28;;;;;;;5.03;72.72;99338.84;4322728;33;32611;-84
2020/12/13 10:13:10;;;;;;;13.98;4.07;;;;;;;4.68;73.64;99342.53;4326460;33;34159;-85
2020/12/13 10:15:37;;;;;;;2.30;2.10;;;;;;;4.73;73.18;99341.22;4333469;33;34333;-85
2020/12/13 10:18:05;;;;;;;7.37;4.85;;;;;;;4.53;73.94;99346.37;4327201;33;34594;-85
2020/12/13 10:20:40;;;;;;;3.95;2.67;;;;;;;4.89;73.01;99336.44;4318848;33;33096;-84
2020/12/13 10:23:07;;;;;;;2.22;2.12;;;;;;;4.71;72.97;99347.59;4326735;33;33158;-84
2020/12/13 10:25:45;;;;;;;5.03;4.22;;;;;;;4.85;73.18;99335.03;4332640;33;33661;-84
2020/12/13 10:28:13;;;;;;;3.53;2.72;;;;;;;5.04;72.50;99339.69;4328997;33;34505;-83
2020/12/13 10:30:41;;;;;;;1.92;1.40;;;;;;;5.24;72.03;99336.28;4332255;33;34370;-85
2020/12/13 10:33:08;;;;;;;2.87;2.62;;;;;;;5.33;71.70;99327.66;4325345;33;33013;-84
2020/12/13 10:35:39;;;;;;;6.35;4.28;;;;;;;5.42;71.36;99335.69;4319708;33;33276;-84
2020/12/13 10:38:07;;;;;;;6.55;5.05;;;;;;;5.71;70.43;99332.34;4331438;33;36171;-84
2020/12/13 10:40:34;;;;;;;12.32;8.18;;;;;;;5.60;71.21;99329.75;4335855;33;35278;-85
2020/12/13 10:43:02;;;;;;;7.47;6.70;;;;;;;5.54;70.92;99332.91;4338058;33;31572;-85
2020/12/13 10:45:30;;;;;;;4.25;3.95;;;;;;;5.26;72.05;99337.03;4313098;33;32847;-85
2020/12/13 10:47:57;;;;;;;;;;;;;;;4.94;72.49;99334.31;4331638;33;35233;-85
2020/12/13 10:50:26;;;;;;;2.72;2.25;;;;;;;5.31;71.89;99337.50;4331639;33;33565;-85
2020/12/13 10:52:54;;;;;;;5.53;4.12;;;;;;;4.80;72.75;99337.16;4300577;33;32903;-85
2020/12/13 10:55:22;;;;;;;8.00;2.83;;;;;;;5.17;71.44;99332.50;4316953;33;32472;-85
2020/12/13 10:57:49;;;;;;;7.62;4.00;;;;;;;4.62;73.88;99343.84;4317246;33;34717;-85
2020/12/13 11:00:18;;;;;;;2.95;2.60;;;;;;;4.68;73.92;99339.91;4319686;33;34250;-85
2020/12/13 11:02:45;;;;;;;5.80;3.72;;;;;;;4.73;73.12;99337.78;4302523;33;32065;-87
2020/12/13 11:05:13;;;;;;;6.62;2.58;;;;;;;4.48;74.08;99335.34;4317771;33;32536;-85
2020/12/13 11:07:40;;;;;;;3.35;2.10;;;;;;;4.63;73.94;99345.53;4321898;33;34097;-86
2020/12/13 11:10:08;;;;;;;3.62;3.37;;;;;;;4.94;73.20;99336.94;4308235;33;35024;-85
2020/12/13 11:12:36;;;;;;;6.53;3.83;;;;;;;4.96;72.44;99336.81;4331683;33;32136;-86
2020/12/13 11:15:04;;;;;;;;;;;;;;;4.99;71.88;99342.66;4318951;33;32958;-86
2020/12/13 11:17:37;;;;;;;3.80;2.58;;;;;;;5.10;71.99;99336.56;4284146;33;34646;-85
2020/12/13 11:20:06;;;;;;;4.43;3.65;;;;;;;5.02;72.02;99344.25;4317360;33;34140;-85
2020/12/13 11:22:34;;;;;;;5.37;3.28;;;;;;;5.06;72.01;99335.97;4325665;33;33287;-86
2020/12/13 11:25:02;;;;;;;5.10;4.68;;;;;;;5.17;72.04;99335.94;4304939;33;32648;-85
2020/12/13 11:27:29;;;;;;;3.12;1.77;;;;;;;4.84;73.16;99338.63;4306168;33;34707;-85
2020/12/13 11:29:57;;;;;;;3.53;3.28;;;;;;;4.94;72.94;99331.66;4303895;33;34080;-85
2020/12/13 11:32:26;;;;;;;3.37;2.92;;;;;;;4.87;72.91;99338.37;4290961;33;34230;-85
2020/12/13 11:34:55;;;;;;;3.03;2.65;;;;;;;4.72;74.44;99344.81;4300959;33;32260;-85
2020/12/13 11:37:22;;;;;;;3.83;3.53;;;;;;;4.85;73.27;99345.56;4291744;33;36454;-85
2020/12/13 11:39:50;;;;;;;2.62;2.42;;;;;;;5.13;72.16;99352.97;4316059;33;35194;-85
2020/12/13 11:42:19;;;;;;;3.47;3.17;;;;;;;4.51;74.21;99353.56;4317465;33;33507;-85
2020/12/13 11:44:49;;;;;;;3.25;2.37;;;;;;;4.91;72.99;99349.53;4317272;33;33948;-85
2020/12/13 11:47:17;;;;;;;5.40;4.32;;;;;;;4.72;73.85;99352.72;4317230;33;35609;-85
2020/12/13 11:49:45;;;;;;;2.67;2.45;;;;;;;4.88;73.33;99350.59;4318476;33;34612;-85
2020/12/13 11:52:13;;;;;;;5.32;3.58;;;;;;;4.77;73.67;99355.84;4308616;33;32260;-85
2020/12/13 11:54:41;;;;;;;2.58;1.85;;;;;;;4.87;73.00;99363.88;4335417;33;32499;-85
2020/12/13 11:57:08;;;;;;;3.70;3.50;;;;;;;5.13;72.42;99355.63;4323566;33;35203;-85
2020/12/13 11:59:36;;;;;;;6.03;4.62;;;;;;;4.56;74.13;99362.78;4341202;33;33840;-85
2020/12/13 12:02:04;;;;;;;5.80;3.45;;;;;;;4.85;73.48;99371.06;4339549;33;33841;-85
2020/12/13 12:04:32;;;;;;;3.85;2.80;;;;;;;5.08;72.57;99363.03;4324230;33;33216;-85
2020/12/13 12:07:00;;;;;;;6.37;2.50;;;;;;;4.80;73.40;99368.78;4334373;33;34822;-85